Time;durP1;ratioP1;P1;durP2;ratioP2;P2;SDS_P1;SDS_P2;PMS_P1;PMS_P2;Temp;Humidity;BMP_temperature;BMP_pressure;BME280_temperature;BME280_humidity;BME280_pressure;Samples;Min_cycle;Max_cycle;Signal;HPM_P1;HPM_P2
2023/02/14 00:00:17;;;;;;;14.93;9.40;;;6.40;73.30;;;;;;4995833;28;20398;-75
2023/02/14 00:02:43;;;;;;;14.02;8.80;;;6.40;72.80;;;;;;4995837;28;20391;-75
2023/02/14 00:05:08;;;;;;;14.48;9.75;;;6.40;72.20;;;;;;4996280;28;20399;-74
2023/02/14 00:07:34;;;;;;;14.00;9.50;;;6.30;72.00;;;;;;4995804;28;20392;-75
2023/02/14 00:09:59;;;;;;;11.83;8.80;;;6.40;71.30;;;;;;4996060;28;20453;-76
2023/02/14 00:12:25;;;;;;;12.93;8.57;;;6.30;71.40;;;;;;4995732;28;20508;-75
2023/02/14 00:15:51;;;;;;;14.80;9.67;;;6.30;71.10;;;;;;4997432;28;20390;-75
2023/02/14 00:17:45;;;;;;;14.70;9.13;;;6.30;71.80;;;;;;4989162;28;21023;-76
2023/02/14 00:20:11;;;;;;;13.98;8.70;;;6.20;72.00;;;;;;4997040;28;20413;-75
2023/02/14 00:22:37;;;;;;;13.25;8.80;;;6.30;72.00;;;;;;4994610;28;20462;-75
2023/02/14 00:25:02;;;;;;;11.77;8.57;;;6.40;70.90;;;;;;4994841;28;20453;-75
2023/02/14 00:27:28;;;;;;;14.05;8.38;;;6.40;69.80;;;;;;4994947;28;20387;-76
2023/02/14 00:29:55;;;;;;;13.60;7.90;;;6.40;69.80;;;;;;4994929;28;20856;-75
2023/02/14 00:32:20;;;;;;;13.45;9.18;;;6.40;69.80;;;;;;4994456;28;20452;-74
2023/02/14 00:34:46;;;;;;;10.95;8.30;;;6.30;69.90;;;;;;4994613;28;20390;-74
2023/02/14 00:37:11;;;;;;;11.40;8.20;;;6.30;70.40;;;;;;4994519;28;20391;-76
2023/02/14 00:39:37;;;;;;;13.13;9.30;;;6.40;69.60;;;;;;4994680;28;20429;-75
2023/02/14 00:42:03;;;;;;;12.15;8.48;;;6.40;69.60;;;;;;4994475;28;20382;-76
2023/02/14 00:44:28;;;;;;;12.25;8.10;;;6.40;69.30;;;;;;4994735;28;20486;-76
2023/02/14 00:46:54;;;;;;;13.32;8.20;;;6.50;67.20;;;;;;4994683;28;20732;-76
2023/02/14 00:49:19;;;;;;;11.32;8.20;;;6.50;67.30;;;;;;4994793;28;20779;-76
2023/02/14 00:51:45;;;;;;;11.73;8.18;;;6.50;66.80;;;;;;4994461;28;20386;-76
2023/02/14 00:54:10;;;;;;;14.90;8.20;;;6.50;67.10;;;;;;4994717;28;20433;-76
2023/02/14 00:56:36;;;;;;;10.95;8.27;;;6.40;67.50;;;;;;4995407;28;20922;-75
2023/02/14 00:59:02;;;;;;;14.95;8.93;;;6.30;68.10;;;;;;4994392;28;20915;-75
2023/02/14 01:01:28;;;;;;;13.20;8.32;;;6.20;69.00;;;;;;4994943;28;20387;-75
2023/02/14 01:03:53;;;;;;;13.88;9.20;;;6.20;69.20;;;;;;4994907;28;20784;-76
2023/02/14 01:06:19;;;;;;;14.13;8.83;;;6.20;69.40;;;;;;4995188;28;20391;-76
2023/02/14 01:08:45;;;;;;;13.95;8.85;;;6.10;70.20;;;;;;5005882;28;20449;-76
2023/02/14 01:11:14;;;;;;;13.88;9.30;;;6.00;71.80;;;;;;5004178;28;20895;-75
2023/02/14 01:13:40;;;;;;;15.10;9.02;;;5.90;72.10;;;;;;5003006;28;20422;-75
2023/02/14 01:16:09;;;;;;;17.85;9.82;;;5.80;73.20;;;;;;5003328;28;20394;-75
2023/02/14 01:18:35;;;;;;;14.73;9.52;;;5.70;74.30;;;;;;5013024;28;20970;-76
2023/02/14 01:21:16;;;;;;;14.48;10.30;;;5.70;75.90;;;;;;5008042;28;20471;-76
2023/02/14 01:23:42;;;;;;;12.20;8.85;;;5.60;76.40;;;;;;4994780;28;20398;-76
2023/02/14 01:26:09;;;;;;;13.77;10.03;;;5.70;76.40;;;;;;4993952;28;20387;-75
2023/02/14 01:28:35;;;;;;;16.00;9.82;;;5.60;76.30;;;;;;4994030;28;20493;-75
2023/02/14 01:31:28;;;;;;;14.85;9.52;;;5.60;78.10;;;;;;4993704;28;20426;-74
2023/02/14 01:33:54;;;;;;;15.00;9.30;;;5.50;77.30;;;;;;4993109;28;20501;-76
2023/02/14 01:36:21;;;;;;;13.13;9.50;;;5.50;78.00;;;;;;4993736;28;20419;-76
2023/02/14 01:38:49;;;;;;;16.05;10.65;;;5.40;78.30;;;;;;4992328;28;20843;-76
2023/02/14 01:41:15;;;;;;;16.95;10.52;;;5.40;80.50;;;;;;4993385;28;20390;-76
2023/02/14 01:43:59;;;;;;;18.37;11.10;;;5.30;80.70;;;;;;4993537;28;20395;-75
2023/02/14 01:46:28;;;;;;;15.05;10.00;;;5.30;81.40;;;;;;4993506;28;20457;-76
2023/02/14 01:49:01;;;;;;;16.13;10.60;;;5.20;81.70;;;;;;4993542;28;20386;-76
2023/02/14 01:51:28;;;;;;;17.55;10.95;;;5.20;82.10;;;;;;4993446;28;20505;-76
2023/02/14 01:53:54;;;;;;;18.55;10.60;;;5.20;82.50;;;;;;4993452;28;20426;-76
2023/02/14 01:56:35;;;;;;;17.27;10.82;;;5.10;82.40;;;;;;4993735;28;20461;-76
2023/02/14 01:59:05;;;;;;;15.63;9.95;;;5.10;83.30;;;;;;4992913;28;20402;-75
2023/02/14 02:01:30;;;;;;;16.65;10.85;;;5.00;84.40;;;;;;4993063;28;20387;-75
2023/02/14 02:04:01;;;;;;;17.27;10.65;;;5.00;84.60;;;;;;4993553;28;20390;-76
2023/02/14 02:06:31;;;;;;;17.15;11.10;;;5.00;85.20;;;;;;4993314;28;20390;-76
2023/02/14 02:09:15;;;;;;;17.20;11.25;;;5.00;85.60;;;;;;4995286;28;20402;-76
2023/02/14 02:11:41;;;;;;;18.75;11.18;;;5.10;84.90;;;;;;4996366;28;20393;-76
2023/02/14 02:14:13;;;;;;;16.73;10.97;;;5.10;83.30;;;;;;4997290;28;20900;-76
2023/02/14 02:17:10;;;;;;;19.87;11.53;;;5.00;83.40;;;;;;4996704;28;20804;-75
2023/02/14 02:19:56;;;;;;;17.58;11.40;;;5.00;84.60;;;;;;4992358;28;20432;-75
2023/02/14 02:22:50;;;;;;;15.65;11.15;;;5.00;84.90;;;;;;4992435;28;20428;-75
2023/02/14 02:25:36;;;;;;;20.48;11.35;;;4.90;85.90;;;;;;4992359;28;20395;-75
2023/02/14 02:28:02;;;;;;;19.48;11.10;;;4.90;86.10;;;;;;4992317;28;20432;-75
2023/02/14 02:30:56;;;;;;;16.35;11.00;;;5.00;86.30;;;;;;4992125;28;20481;-76
2023/02/14 02:33:33;;;;;;;18.03;11.80;;;5.10;84.80;;;;;;4992233;28;20421;-75
2023/02/14 02:36:41;;;;;;;15.07;11.20;;;5.10;83.10;;;;;;4992364;28;20879;-77
2023/02/14 02:39:43;;;;;;;18.02;11.70;;;5.00;84.30;;;;;;4992437;28;20383;-75
2023/02/14 02:42:32;;;;;;;19.10;11.60;;;5.10;84.50;;;;;;4992208;28;20386;-76
2023/02/14 02:45:32;;;;;;;19.48;12.20;;;5.10;84.00;;;;;;4972920;28;20788;-76
2023/02/14 02:48:08;;;;;;;18.98;11.82;;;5.00;85.80;;;;;;4991974;28;20420;-76
2023/02/14 02:53:39;;;;;;;19.08;12.55;;;5.00;85.90;;;;;;4992466;28;20894;-76
2023/02/14 02:59:05;;;;;;;18.77;11.73;;;5.10;84.80;;;;;;4991876;28;20545;-75
2023/02/14 03:01:34;;;;;;;17.85;11.70;;;5.10;84.50;;;;;;4991801;28;20757;-74
2023/02/14 03:06:50;;;;;;;21.35;12.13;;;5.10;84.50;;;;;;4986461;28;20409;-76
2023/02/14 03:09:19;;;;;;;16.70;11.73;;;5.10;84.60;;;;;;4990311;28;20410;-75
2023/02/14 03:12:09;;;;;;;17.92;11.65;;;5.10;84.00;;;;;;4991604;28;20402;-73
2023/02/14 03:14:48;;;;;;;18.58;11.60;;;5.10;84.60;;;;;;4987153;28;20408;-74
2023/02/14 03:17:32;;;;;;;19.80;11.40;;;5.10;85.30;;;;;;4990683;28;20382;-75
2023/02/14 03:20:22;;;;;;;17.60;12.60;;;5.20;84.00;;;;;;4990818;28;20409;-74
2023/02/14 03:23:01;;;;;;;20.52;12.27;;;5.10;85.10;;;;;;4993871;28;20381;-74
2023/02/14 03:25:56;;;;;;;17.98;11.77;;;5.10;86.40;;;;;;4992960;28;20391;-74
2023/02/14 03:28:35;;;;;;;19.13;12.40;;;5.20;87.40;;;;;;4974309;28;20888;-75
2023/02/14 03:31:20;;;;;;;20.25;11.95;;;5.20;87.20;;;;;;4985122;28;20502;-76
2023/02/14 03:34:00;;;;;;;18.85;11.60;;;5.20;86.70;;;;;;4992481;28;20418;-75
2023/02/14 03:37:01;;;;;;;21.60;11.80;;;5.20;86.20;;;;;;4991880;28;20478;-76
2023/02/14 03:39:38;;;;;;;22.50;12.10;;;5.20;83.10;;;;;;4970563;28;20394;-76
2023/02/14 03:42:11;;;;;;;21.85;12.75;;;5.20;83.10;;;;;;5000553;28;20398;-76
2023/02/14 03:44:39;;;;;;;18.83;12.00;;;5.20;83.20;;;;;;5003915;28;20457;-76
2023/02/14 03:47:18;;;;;;;21.42;12.60;;;5.20;82.70;;;;;;4992205;28;20386;-76
2023/02/14 03:49:49;;;;;;;21.20;12.45;;;5.30;82.60;;;;;;4992619;28;20398;-76
2023/02/14 03:52:16;;;;;;;18.77;12.57;;;5.30;82.80;;;;;;4993214;28;20414;-76
2023/02/14 03:54:45;;;;;;;23.80;13.40;;;5.20;82.90;;;;;;5013471;28;20370;-75
2023/02/14 03:57:23;;;;;;;18.02;13.15;;;5.20;82.80;;;;;;5013410;28;20390;-75
2023/02/14 03:59:49;;;;;;;22.48;12.80;;;5.30;82.60;;;;;;4992175;28;20421;-77
2023/02/14 04:02:20;;;;;;;23.27;12.93;;;5.40;80.50;;;;;;4991700;28;20717;-75
2023/02/14 04:04:49;;;;;;;21.23;13.38;;;5.30;80.30;;;;;;4991786;28;20401;-76
2023/02/14 04:07:17;;;;;;;20.10;13.02;;;5.20;80.80;;;;;;4991568;28;20467;-76
2023/02/14 04:09:43;;;;;;;22.90;13.65;;;5.20;81.70;;;;;;4991310;28;20456;-76
2023/02/14 04:12:09;;;;;;;20.43;12.70;;;5.10;83.40;;;;;;4991255;28;20398;-76
2023/02/14 04:14:35;;;;;;;21.63;13.52;;;5.00;84.40;;;;;;4992021;28;20393;-73
2023/02/14 04:19:45;;;;;;;21.75;13.80;;;5.20;81.50;;;;;;4996791;28;20389;-74
2023/02/14 04:22:11;;;;;;;23.77;14.25;;;5.10;81.90;;;;;;5004256;28;20386;-73
2023/02/14 04:24:37;;;;;;;23.83;13.40;;;5.10;83.50;;;;;;5009516;28;20430;-75
2023/02/14 04:27:08;;;;;;;22.53;14.10;;;5.00;83.90;;;;;;5008134;28;20398;-75
2023/02/14 04:29:39;;;;;;;20.77;13.80;;;5.00;84.50;;;;;;5000401;28;20944;-74
2023/02/14 04:32:10;;;;;;;21.00;13.70;;;4.90;85.30;;;;;;4994878;28;20752;-76
2023/02/14 04:34:36;;;;;;;22.88;14.32;;;4.90;85.40;;;;;;4995900;28;20390;-76
2023/02/14 04:37:02;;;;;;;29.10;14.40;;;4.90;85.30;;;;;;4995206;28;20382;-76
2023/02/14 04:39:28;;;;;;;25.80;14.40;;;4.90;85.50;;;;;;4994740;28;20481;-75
2023/02/14 04:41:53;;;;;;;25.83;14.50;;;4.90;86.20;;;;;;4994244;28;20493;-74
2023/02/14 04:44:19;;;;;;;24.60;15.40;;;4.90;85.80;;;;;;4993433;28;20390;-76
2023/02/14 04:46:44;;;;;;;22.30;14.40;;;4.90;86.10;;;;;;4994478;28;20414;-75
2023/02/14 04:49:10;;;;;;;25.10;15.00;;;4.90;86.30;;;;;;4994346;28;20433;-76
2023/02/14 04:51:36;;;;;;;21.37;14.07;;;4.90;86.60;;;;;;4994051;28;20425;-73
2023/02/14 04:54:01;;;;;;;24.63;14.50;;;4.80;85.20;;;;;;4994417;28;20414;-75
2023/02/14 04:56:27;;;;;;;25.38;15.35;;;4.80;85.80;;;;;;4994409;28;20471;-74
2023/02/14 04:58:53;;;;;;;24.73;15.10;;;4.70;86.80;;;;;;4994298;28;20405;-74
2023/02/14 05:01:18;;;;;;;24.03;15.00;;;4.70;88.00;;;;;;4994344;28;20383;-75
2023/02/14 05:03:44;;;;;;;23.70;15.47;;;4.70;87.70;;;;;;4993913;28;20747;-73
2023/02/14 05:06:10;;;;;;;24.80;15.57;;;4.70;88.40;;;;;;4994309;28;20881;-74
2023/02/14 05:08:35;;;;;;;24.02;15.60;;;4.70;87.90;;;;;;4994048;28;20390;-75
2023/02/14 05:11:01;;;;;;;27.48;16.42;;;4.60;88.40;;;;;;4993855;28;20390;-75
2023/02/14 05:13:27;;;;;;;26.52;16.05;;;4.60;89.10;;;;;;4993783;28;20504;-73
2023/02/14 05:15:53;;;;;;;26.80;15.80;;;4.60;89.70;;;;;;4993957;28;20387;-74
2023/02/14 05:18:18;;;;;;;25.95;16.20;;;4.60;89.60;;;;;;4992814;28;20397;-75
2023/02/14 05:20:44;;;;;;;26.73;17.13;;;4.60;90.30;;;;;;4993862;28;20379;-76
2023/02/14 05:23:12;;;;;;;25.58;16.40;;;4.50;90.20;;;;;;4993493;28;20394;-74
2023/02/14 05:25:39;;;;;;;25.97;16.47;;;4.40;91.70;;;;;;4993486;28;20510;-76
2023/02/14 05:28:05;;;;;;;29.08;17.50;;;4.50;92.50;;;;;;4993900;28;20394;-74
2023/02/14 05:30:31;;;;;;;28.47;17.13;;;4.50;93.50;;;;;;4993473;28;20405;-74
2023/02/14 05:32:56;;;;;;;30.00;17.70;;;4.40;93.70;;;;;;4993155;28;20410;-75
2023/02/14 05:35:22;;;;;;;34.35;17.02;;;4.50;93.90;;;;;;4993376;28;20390;-76
2023/02/14 05:37:47;;;;;;;28.15;17.67;;;4.40;94.10;;;;;;4992181;28;20452;-75
2023/02/14 05:40:15;;;;;;;31.98;18.80;;;4.40;95.00;;;;;;4992755;28;20399;-75
2023/02/14 05:42:41;;;;;;;30.20;19.02;;;4.30;94.80;;;;;;4992618;28;20397;-76
2023/02/14 05:45:07;;;;;;;28.88;17.60;;;4.30;96.10;;;;;;4993374;28;20401;-75
2023/02/14 05:47:32;;;;;;;32.53;18.52;;;4.30;96.70;;;;;;4993150;28;20481;-76
2023/02/14 05:49:58;;;;;;;31.55;18.10;;;4.30;96.40;;;;;;4992972;28;20802;-74
2023/02/14 05:52:23;;;;;;;30.48;18.75;;;4.20;97.80;;;;;;4991584;28;20899;-73
2023/02/14 05:54:49;;;;;;;35.13;18.45;;;4.20;97.30;;;;;;4993414;28;20445;-76
2023/02/14 05:57:14;;;;;;;29.33;17.77;;;4.20;98.00;;;;;;4993637;28;20425;-74
2023/02/14 05:59:40;;;;;;;31.63;19.37;;;4.20;98.40;;;;;;4992853;28;20768;-76
2023/02/14 06:02:06;;;;;;;32.93;19.10;;;4.10;98.80;;;;;;4992647;28;20386;-73
2023/02/14 06:04:31;;;;;;;33.37;18.97;;;4.10;98.90;;;;;;4993455;28;20402;-74
2023/02/14 06:06:57;;;;;;;33.27;20.23;;;4.10;99.80;;;;;;4993031;28;20397;-76
2023/02/14 06:09:22;;;;;;;33.03;18.47;;;4.10;99.80;;;;;;4992879;28;20447;-75
2023/02/14 06:11:48;;;;;;;31.53;19.40;;;4.10;99.30;;;;;;4993630;28;20394;-75
2023/02/14 06:14:13;;;;;;;34.72;19.00;;;4.00;99.90;;;;;;5000998;28;20448;-74
2023/02/14 06:16:39;;;;;;;31.65;19.15;;;4.00;99.90;;;;;;5028004;28;20417;-73
2023/02/14 06:19:05;;;;;;;31.35;19.10;;;3.90;99.90;;;;;;4996744;28;20453;-74
2023/02/14 06:21:30;;;;;;;37.00;19.88;;;3.90;99.90;;;;;;4992976;28;20394;-73
2023/02/14 06:23:56;;;;;;;30.35;18.33;;;3.90;99.90;;;;;;4993511;28;20386;-75
2023/02/14 06:26:22;;;;;;;35.60;20.00;;;3.90;99.90;;;;;;4994479;28;20876;-76
2023/02/14 06:28:52;;;;;;;32.63;19.50;;;4.00;99.90;;;;;;4995100;28;20417;-76
2023/02/14 06:31:18;;;;;;;40.35;20.88;;;4.00;99.90;;;;;;4993990;28;20386;-75
2023/02/14 06:33:43;;;;;;;38.03;20.15;;;4.10;99.90;;;;;;4993187;28;20506;-75
2023/02/14 06:36:09;;;;;;;35.97;19.77;;;4.10;98.90;;;;;;4994318;28;20485;-76
2023/02/14 06:38:35;;;;;;;39.28;21.00;;;4.00;98.10;;;;;;4995815;28;20405;-73
2023/02/14 06:41:05;;;;;;;40.50;20.53;;;4.10;98.50;;;;;;5001703;28;20465;-73
2023/02/14 06:43:31;;;;;;;34.65;20.00;;;4.00;99.20;;;;;;5000303;28;20394;-74
2023/02/14 06:45:57;;;;;;;35.60;20.95;;;4.00;99.10;;;;;;4997649;28;20855;-73
2023/02/14 06:48:22;;;;;;;37.75;20.05;;;3.90;99.90;;;;;;4998029;28;20417;-76
2023/02/14 06:50:48;;;;;;;39.10;21.23;;;3.80;99.90;;;;;;4996161;28;20503;-77
2023/02/14 06:53:14;;;;;;;33.07;19.70;;;3.90;99.90;;;;;;4992548;28;20437;-76
2023/02/14 06:55:40;;;;;;;39.08;21.95;;;3.90;99.90;;;;;;4992261;28;20375;-76
2023/02/14 06:58:06;;;;;;;39.72;21.30;;;4.00;99.90;;;;;;4992552;28;20387;-76
2023/02/14 07:00:32;;;;;;;33.53;19.93;;;4.00;99.90;;;;;;4992297;28;20505;-73
2023/02/14 07:02:57;;;;;;;36.05;21.60;;;4.00;99.90;;;;;;4992429;28;20884;-74
2023/02/14 07:05:23;;;;;;;38.63;23.10;;;4.00;99.90;;;;;;4993847;28;20413;-74
2023/02/14 07:07:48;;;;;;;36.63;21.17;;;4.00;99.90;;;;;;4993787;28;20556;-74
2023/02/14 07:10:14;;;;;;;41.20;22.60;;;4.00;99.90;;;;;;4993526;28;20835;-74
2023/02/14 07:12:40;;;;;;;42.67;22.20;;;4.10;99.90;;;;;;4993376;28;20406;-75
2023/02/14 07:15:11;;;;;;;39.03;22.40;;;4.10;99.40;;;;;;4994512;28;20390;-75
2023/02/14 07:17:37;;;;;;;43.58;22.30;;;4.20;99.10;;;;;;4992562;28;20397;-75
2023/02/14 07:20:05;;;;;;;37.13;21.58;;;4.10;99.90;;;;;;4992742;28;20383;-75
2023/02/14 07:22:31;;;;;;;41.50;22.48;;;4.20;98.90;;;;;;4992578;28;20391;-75
2023/02/14 07:24:57;;;;;;;38.95;22.90;;;4.20;98.30;;;;;;4992028;28;20398;-76
2023/02/14 07:27:23;;;;;;;38.93;22.20;;;4.30;98.60;;;;;;4992552;28;20498;-76
2023/02/14 07:29:48;;;;;;;43.20;22.83;;;4.40;96.20;;;;;;4997210;28;20394;-73
2023/02/14 07:32:14;;;;;;;42.83;22.90;;;4.40;95.40;;;;;;5001117;28;20756;-76
2023/02/14 07:34:40;;;;;;;42.45;23.52;;;4.50;95.20;;;;;;4992614;28;20433;-75
2023/02/14 07:37:05;;;;;;;37.95;23.10;;;4.50;94.90;;;;;;4992317;28;20387;-75
2023/02/14 07:39:31;;;;;;;44.60;23.70;;;4.50;93.80;;;;;;4992384;28;20737;-75
2023/02/14 07:41:56;;;;;;;48.13;26.10;;;4.60;93.20;;;;;;4991547;28;20393;-75
2023/02/14 07:44:22;;;;;;;44.10;24.00;;;4.60;92.60;;;;;;4991654;28;20912;-74
2023/02/14 07:46:47;;;;;;;48.90;26.00;;;4.70;91.50;;;;;;4992477;28;20387;-75
2023/02/14 07:49:13;;;;;;;48.97;25.50;;;4.70;91.70;;;;;;4993433;28;20405;-75
2023/02/14 07:51:39;;;;;;;45.60;25.00;;;4.80;91.10;;;;;;4993729;28;20394;-75
2023/02/14 07:54:04;;;;;;;47.10;25.60;;;4.90;89.50;;;;;;4990532;28;20899;-75
2023/02/14 07:56:30;;;;;;;47.30;25.47;;;5.00;87.50;;;;;;4992182;28;20524;-76
2023/02/14 07:58:55;;;;;;;49.87;25.60;;;5.20;85.50;;;;;;4992003;28;20398;-75
2023/02/14 08:01:21;;;;;;;44.40;25.70;;;5.20;82.60;;;;;;4991471;28;20390;-73
2023/02/14 08:03:50;;;;;;;41.20;23.93;;;5.30;81.50;;;;;;4990238;28;20386;-74
2023/02/14 08:06:17;;;;;;;44.42;24.80;;;5.30;80.50;;;;;;4995693;28;20389;-74
2023/02/14 08:08:44;;;;;;;44.88;24.05;;;5.50;78.80;;;;;;4995132;28;20405;-74
2023/02/14 08:11:10;;;;;;;41.55;24.25;;;5.60;76.80;;;;;;4995195;28;20438;-75
2023/02/14 08:13:36;;;;;;;40.80;23.90;;;5.60;75.40;;;;;;4994783;28;20410;-75
2023/02/14 08:16:08;;;;;;;45.03;23.98;;;5.70;75.30;;;;;;4994969;28;20418;-74
2023/02/14 08:18:39;;;;;;;41.20;23.70;;;5.80;74.10;;;;;;4995010;28;20782;-73
2023/02/14 08:21:07;;;;;;;40.10;22.55;;;5.90;72.70;;;;;;4994818;28;20439;-74
2023/02/14 08:23:33;;;;;;;40.25;23.90;;;5.90;71.20;;;;;;4995061;28;20385;-75
2023/02/14 08:25:59;;;;;;;42.35;22.58;;;5.90;69.80;;;;;;4995704;28;20391;-74
2023/02/14 08:28:25;;;;;;;38.05;21.80;;;6.00;70.10;;;;;;5000467;28;20918;-75
2023/02/14 08:30:52;;;;;;;40.53;23.17;;;6.10;69.90;;;;;;5002255;28;20387;-76
2023/02/14 08:33:18;;;;;;;41.33;22.77;;;6.40;68.60;;;;;;5001545;28;20433;-74
2023/02/14 08:35:43;;;;;;;38.50;23.15;;;6.50;64.80;;;;;;4995545;28;20470;-74
2023/02/14 08:38:09;;;;;;;41.67;22.90;;;6.60;62.90;;;;;;4994788;28;20387;-74
2023/02/14 08:40:35;;;;;;;39.70;22.60;;;6.60;62.40;;;;;;4994850;28;20405;-74
2023/02/14 08:43:03;;;;;;;39.35;21.55;;;6.70;61.40;;;;;;4995118;28;20440;-75
2023/02/14 08:45:28;;;;;;;38.33;21.35;;;6.80;60.50;;;;;;4995754;28;20416;-74
2023/02/14 08:47:58;;;;;;;36.70;22.00;;;6.80;59.80;;;;;;5003992;28;20402;-76
2023/02/14 08:50:24;;;;;;;42.40;23.13;;;6.80;59.20;;;;;;5003708;28;20433;-74
2023/02/14 08:52:49;;;;;;;41.07;22.87;;;6.80;59.30;;;;;;4994340;28;20407;-74
2023/02/14 08:55:15;;;;;;;44.50;24.00;;;6.90;60.20;;;;;;4992836;28;20379;-73
2023/02/14 08:57:41;;;;;;;42.70;23.60;;;7.00;59.60;;;;;;4993807;28;20429;-74
2023/02/14 09:00:07;;;;;;;44.13;24.40;;;7.10;59.70;;;;;;4994165;28;20399;-73
2023/02/14 09:02:34;;;;;;;41.25;23.40;;;7.20;59.20;;;;;;4993797;28;20386;-75
2023/02/14 09:04:59;;;;;;;40.70;22.60;;;7.30;58.40;;;;;;4994608;28;20387;-75
2023/02/14 09:07:25;;;;;;;43.77;22.90;;;7.40;58.00;;;;;;4995409;28;20394;-75
2023/02/14 09:09:50;;;;;;;45.67;24.20;;;7.50;56.00;;;;;;4995570;28;20398;-74
2023/02/14 09:12:16;;;;;;;40.60;24.53;;;7.70;53.40;;;;;;4994852;28;20405;-75
2023/02/14 09:14:43;;;;;;;40.53;23.97;;;7.70;53.50;;;;;;4995014;28;20421;-75
2023/02/14 09:17:14;;;;;;;38.17;23.13;;;7.80;52.90;;;;;;4995511;28;20747;-75
2023/02/14 09:19:39;;;;;;;41.15;23.38;;;7.90;51.20;;;;;;4995913;28;20744;-75
2023/02/14 09:22:07;;;;;;;39.67;23.95;;;7.90;51.20;;;;;;4995860;28;20387;-75
2023/02/14 09:24:34;;;;;;;44.95;23.27;;;8.00;51.70;;;;;;4996292;28;20398;-76
2023/02/14 09:27:00;;;;;;;42.63;24.58;;;8.00;51.70;;;;;;4995468;28;20474;-74
2023/02/14 09:29:27;;;;;;;45.20;23.73;;;8.00;51.60;;;;;;4994995;28;20729;-75
2023/02/14 09:31:58;;;;;;;44.20;24.07;;;8.20;49.80;;;;;;4994562;28;20390;-75
2023/02/14 09:37:13;;;;;;;41.23;24.10;;;8.30;48.30;;;;;;4994611;28;20517;-75
2023/02/14 09:39:38;;;;;;;43.23;23.60;;;8.40;48.90;;;;;;4994491;28;20462;-74
2023/02/14 09:42:42;;;;;;;43.00;24.33;;;8.40;48.30;;;;;;4994233;28;20382;-75
2023/02/14 09:45:29;;;;;;;44.28;24.23;;;8.50;47.60;;;;;;4994908;28;20397;-74
2023/02/14 09:47:56;;;;;;;41.45;24.05;;;8.70;46.30;;;;;;4994872;28;20791;-74
2023/02/14 09:50:40;;;;;;;41.43;24.30;;;8.70;46.30;;;;;;4994664;28;20892;-75
2023/02/14 09:53:28;;;;;;;50.53;29.58;;;8.80;45.80;;;;;;4993195;28;20410;-75
2023/02/14 09:56:16;;;;;;;46.67;24.60;;;8.90;46.00;;;;;;4973116;28;20394;-74
2023/02/14 09:59:18;;;;;;;43.13;24.90;;;8.90;44.90;;;;;;4992663;28;20768;-76
2023/02/14 10:01:52;;;;;;;43.80;24.70;;;9.00;44.60;;;;;;4993162;28;20379;-75
2023/02/14 10:04:53;;;;;;;43.28;25.00;;;9.10;45.10;;;;;;4992865;28;20457;-75
2023/02/14 10:07:29;;;;;;;46.78;26.38;;;9.30;43.00;;;;;;4989125;28;20395;-73
2023/02/14 10:10:15;;;;;;;43.45;25.05;;;9.30;43.00;;;;;;4992687;28;20431;-75
2023/02/14 10:12:40;;;;;;;48.80;25.77;;;9.30;40.90;;;;;;4993291;28;20922;-73
2023/02/14 10:15:17;;;;;;;43.27;24.77;;;9.40;39.70;;;;;;5001365;28;20402;-74
2023/02/14 10:17:45;;;;;;;45.58;24.58;;;9.50;39.70;;;;;;5000655;28;20718;-75
2023/02/14 10:20:30;;;;;;;44.13;24.33;;;9.50;40.70;;;;;;4994445;28;20394;-75
2023/02/14 10:23:10;;;;;;;49.40;26.05;;;9.60;40.40;;;;;;4992925;28;20779;-76
2023/02/14 10:25:53;;;;;;;46.42;25.20;;;9.60;40.20;;;;;;4993893;28;20390;-74
2023/02/14 10:28:26;;;;;;;40.27;23.20;;;9.70;39.80;;;;;;4993172;28;20417;-74
2023/02/14 10:31:22;;;;;;;43.63;24.40;;;9.90;39.50;;;;;;4992072;28;20887;-74
2023/02/14 10:33:50;;;;;;;40.90;23.95;;;9.90;38.60;;;;;;4988934;28;20429;-75
2023/02/14 10:36:40;;;;;;;41.80;25.13;;;10.10;38.10;;;;;;4992238;28;20382;-73
2023/02/14 10:39:17;;;;;;;44.78;26.90;;;10.00;38.30;;;;;;4992204;28;20386;-75
2023/02/14 10:42:03;;;;;;;49.65;26.23;;;10.10;37.50;;;;;;4991798;28;20387;-75
2023/02/14 10:44:49;;;;;;;43.65;24.90;;;10.10;37.10;;;;;;4993349;28;20401;-75
2023/02/14 10:47:49;;;;;;;44.33;23.83;;;10.20;37.20;;;;;;4991985;28;20394;-76
2023/02/14 10:50:31;;;;;;;39.17;22.73;;;10.40;35.70;;;;;;4992670;28;20764;-75
2023/02/14 10:53:19;;;;;;;41.85;24.05;;;10.40;35.00;;;;;;4991834;28;20429;-74
2023/02/14 10:55:50;;;;;;;37.58;22.55;;;10.40;34.80;;;;;;4991628;28;20476;-76
2023/02/14 10:58:19;;;;;;;40.50;22.80;;;10.50;34.20;;;;;;4991621;28;20419;-74
2023/02/14 11:01:00;;;;;;;37.95;22.63;;;10.50;33.60;;;;;;4991864;28;20394;-75
2023/02/14 11:03:27;;;;;;;38.85;22.60;;;10.60;34.20;;;;;;4990574;28;20398;-75
2023/02/14 11:05:53;;;;;;;40.30;22.30;;;10.60;33.00;;;;;;4991722;28;20386;-76
2023/02/14 11:08:27;;;;;;;53.77;22.57;;;10.50;33.50;;;;;;4991567;28;20450;-74
2023/02/14 11:11:03;;;;;;;39.60;22.42;;;10.60;33.50;;;;;;4991542;28;20394;-75
2023/02/14 11:13:35;;;;;;;38.70;22.30;;;10.60;33.30;;;;;;4993490;28;20485;-76
2023/02/14 11:16:07;;;;;;;42.35;22.83;;;10.70;34.20;;;;;;4994405;28;20449;-73
2023/02/14 11:18:38;;;;;;;38.45;21.63;;;10.70;33.50;;;;;;4998029;28;20382;-74
2023/02/14 11:21:10;;;;;;;35.63;21.20;;;10.80;31.90;;;;;;5001022;28;20383;-75
2023/02/14 11:23:46;;;;;;;37.60;22.02;;;10.90;32.50;;;;;;4995517;28;20402;-74
2023/02/14 11:26:25;;;;;;;38.13;21.75;;;10.90;32.10;;;;;;4992089;28;20721;-74
2023/02/14 11:28:58;;;;;;;35.92;20.83;;;10.90;32.50;;;;;;4991604;28;20941;-74
2023/02/14 11:31:32;;;;;;;34.30;20.50;;;11.10;32.10;;;;;;4991348;28;20485;-74
2023/02/14 11:33:59;;;;;;;36.38;21.40;;;11.10;30.50;;;;;;4991261;28;20441;-74
2023/02/14 11:36:26;;;;;;;38.83;21.55;;;11.10;30.60;;;;;;4991360;28;20473;-74
2023/02/14 11:39:02;;;;;;;37.97;21.20;;;11.20;29.80;;;;;;4992977;28;20756;-74
2023/02/14 11:41:49;;;;;;;34.60;20.65;;;11.20;30.50;;;;;;4995331;28;20752;-75
2023/02/14 11:44:21;;;;;;;37.72;19.48;;;11.20;29.80;;;;;;5010245;28;20394;-73
2023/02/14 11:46:48;;;;;;;43.78;19.92;;;11.20;29.40;;;;;;4995070;28;20807;-75
2023/02/14 11:49:32;;;;;;;32.47;18.90;;;11.30;29.20;;;;;;5009906;28;20394;-75
2023/02/14 11:52:07;;;;;;;34.45;19.77;;;11.40;28.90;;;;;;4995117;28;20795;-74
2023/02/14 11:54:34;;;;;;;36.95;19.52;;;11.60;28.70;;;;;;4995390;28;20772;-74
2023/02/14 11:57:11;;;;;;;33.53;20.25;;;11.50;28.10;;;;;;4994858;28;20798;-74
2023/02/14 11:59:48;;;;;;;32.67;19.83;;;11.50;28.50;;;;;;4993360;28;20403;-75
2023/02/14 12:02:21;;;;;;;32.10;18.73;;;11.60;28.10;;;;;;4994382;28;20386;-74
2023/02/14 12:04:49;;;;;;;31.70;19.70;;;11.60;28.30;;;;;;4994844;28;20398;-75
2023/02/14 12:07:28;;;;;;;32.20;20.02;;;11.70;27.20;;;;;;4995035;28;20401;-74
2023/02/14 12:10:12;;;;;;;35.80;19.75;;;11.70;27.70;;;;;;4994789;28;20902;-73
2023/02/14 12:12:51;;;;;;;31.48;17.60;;;11.90;26.70;;;;;;4994593;28;20467;-74
2023/02/14 12:15:36;;;;;;;40.58;19.55;;;11.90;26.70;;;;;;4994896;28;20776;-74
2023/02/14 12:18:08;;;;;;;32.50;19.47;;;11.80;25.80;;;;;;4995137;28;20425;-73
2023/02/14 12:20:36;;;;;;;29.15;18.40;;;12.00;26.30;;;;;;4994833;28;20389;-75
2023/02/14 12:23:09;;;;;;;35.30;18.43;;;12.00;26.20;;;;;;4994502;28;20724;-75
2023/02/14 12:25:57;;;;;;;31.33;18.20;;;12.00;25.90;;;;;;4994844;28;20382;-76
2023/02/14 12:28:37;;;;;;;33.22;18.80;;;12.00;25.90;;;;;;4994658;28;20928;-75
2023/02/14 12:31:12;;;;;;;31.90;18.80;;;12.10;26.30;;;;;;4994766;28;20812;-75
2023/02/14 12:33:39;;;;;;;33.83;17.58;;;12.10;25.10;;;;;;4995343;28;20410;-74
2023/02/14 12:36:13;;;;;;;33.13;19.00;;;12.20;25.40;;;;;;4999839;28;20382;-75
2023/02/14 12:38:54;;;;;;;37.70;19.73;;;12.20;24.70;;;;;;5002861;28;20382;-73
2023/02/14 12:41:44;;;;;;;32.70;19.48;;;12.20;25.00;;;;;;4999702;28;20390;-74
2023/02/14 12:44:29;;;;;;;34.33;20.25;;;12.20;25.50;;;;;;4994675;28;20415;-75
2023/02/14 12:47:03;;;;;;;37.10;19.98;;;12.10;25.50;;;;;;4995038;28;20387;-83
2023/02/14 12:49:43;;;;;;;33.65;18.73;;;12.30;27.20;;;;;;4994755;28;20401;-75
2023/02/14 12:52:30;;;;;;;35.25;19.67;;;12.40;25.20;;;;;;4995629;28;20386;-76
2023/02/14 12:55:28;;;;;;;31.35;18.40;;;12.50;24.70;;;;;;4989017;28;20475;-75
2023/02/14 12:58:00;;;;;;;32.05;18.40;;;12.60;24.20;;;;;;4987876;28;20409;-74
2023/02/14 13:00:47;;;;;;;34.28;19.27;;;12.60;25.30;;;;;;4993330;28;20796;-74
2023/02/14 13:03:27;;;;;;;31.58;18.92;;;12.60;24.40;;;;;;4992064;28;20387;-74
2023/02/14 13:06:14;;;;;;;32.40;19.02;;;12.60;25.00;;;;;;4992379;28;20406;-75
2023/02/14 13:09:06;;;;;;;30.90;18.38;;;12.70;24.20;;;;;;4996903;28;20409;-76
2023/02/14 13:12:14;;;;;;;35.47;19.80;;;12.70;24.60;;;;;;4992828;28;20402;-75